Time;durP1;ratioP1;P1;durP2;ratioP2;P2;SDS_P1;SDS_P2;PMS_P1;PMS_P2;Temp;Humidity;BMP_temperature;BMP_pressure;BME280_temperature;BME280_humidity;BME280_pressure;Samples;Min_cycle;Max_cycle;Signal;HPM_P1;HPM_P2
2019/11/11 00:00:43;;;;;;;26.05;16.6;;;;;;;1.1;98.56348;95049.25;;;;
2019/11/11 00:01:45;;;;;;;26.05;16.6;;;;;;;1.1;98.56348;95049.25;;;;
2019/11/11 00:02:47;;;;;;;26.05;16.6;;;;;;;1.1;98.56348;95049.25;;;;
2019/11/11 00:03:48;;;;;;;26.05;16.6;;;;;;;1.1;98.56348;95049.25;;;;
2019/11/11 00:04:49;;;;;;;26.05;16.6;;;;;;;1.1;98.56348;95049.25;;;;
2019/11/11 00:05:50;;;;;;;26.05;16.6;;;;;;;1.1;98.56348;95049.25;;;;
2019/11/11 00:06:51;;;;;;;26.05;16.6;;;;;;;1.1;98.56348;95049.25;;;;
2019/11/11 00:07:52;;;;;;;26.05;16.6;;;;;;;1.1;98.56348;95049.25;;;;
2019/11/11 00:08:54;;;;;;;26.05;16.6;;;;;;;1.1;98.56348;95049.25;;;;
2019/11/11 00:09:55;;;;;;;26.05;16.6;;;;;;;1.1;98.56348;95049.25;;;;
2019/11/11 00:10:56;;;;;;;28.65;17.8;;;;;;;1.1;98.48242;95050.08;;;;
2019/11/11 00:11:57;;;;;;;28.65;17.8;;;;;;;1.1;98.48242;95050.08;;;;
2019/11/11 00:12:58;;;;;;;28.65;17.8;;;;;;;1.1;98.48242;95050.08;;;;
2019/11/11 00:13:59;;;;;;;28.65;17.8;;;;;;;1.1;98.48242;95050.08;;;;
2019/11/11 00:15:02;;;;;;;28.65;17.8;;;;;;;1.1;98.48242;95050.08;;;;
2019/11/11 00:16:03;;;;;;;28.65;17.8;;;;;;;1.1;98.48242;95050.08;;;;
2019/11/11 00:17:04;;;;;;;28.65;17.8;;;;;;;1.1;98.48242;95050.08;;;;
2019/11/11 00:18:05;;;;;;;28.65;17.8;;;;;;;1.1;98.48242;95050.08;;;;
2019/11/11 00:19:06;;;;;;;28.65;17.8;;;;;;;1.1;98.48242;95050.08;;;;
2019/11/11 00:20:08;;;;;;;28.65;17.8;;;;;;;1.1;98.48242;95050.08;;;;
2019/11/11 00:21:09;;;;;;;27.45;16.75;;;;;;;1;98.41699;95043.32;;;;
2019/11/11 00:22:10;;;;;;;27.45;16.75;;;;;;;1;98.41699;95043.32;;;;
2019/11/11 00:23:11;;;;;;;27.45;16.75;;;;;;;1;98.41699;95043.32;;;;
2019/11/11 00:24:12;;;;;;;27.45;16.75;;;;;;;1;98.41699;95043.32;;;;
2019/11/11 00:25:13;;;;;;;27.45;16.75;;;;;;;1;98.41699;95043.32;;;;
2019/11/11 00:26:15;;;;;;;27.45;16.75;;;;;;;1;98.41699;95043.32;;;;
2019/11/11 00:27:16;;;;;;;27.45;16.75;;;;;;;1;98.41699;95043.32;;;;
2019/11/11 00:28:17;;;;;;;27.45;16.75;;;;;;;1;98.41699;95043.32;;;;
2019/11/11 00:29:18;;;;;;;27.45;16.75;;;;;;;1;98.41699;95043.32;;;;
2019/11/11 00:30:19;;;;;;;27.45;16.75;;;;;;;1;98.41699;95043.32;;;;
2019/11/11 00:31:20;;;;;;;27.45;16.75;;;;;;;1;98.41699;95043.32;;;;
2019/11/11 00:32:21;;;;;;;28.1;18.1;;;;;;;0.97;98.78418;95038.45;;;;
2019/11/11 00:33:24;;;;;;;28.1;18.1;;;;;;;0.97;98.78418;95038.45;;;;
2019/11/11 00:34:25;;;;;;;28.1;18.1;;;;;;;0.97;98.78418;95038.45;;;;
2019/11/11 00:35:26;;;;;;;28.1;18.1;;;;;;;0.97;98.78418;95038.45;;;;
2019/11/11 00:36:27;;;;;;;28.1;18.1;;;;;;;0.97;98.78418;95038.45;;;;
2019/11/11 00:37:28;;;;;;;28.1;18.1;;;;;;;0.97;98.78418;95038.45;;;;
2019/11/11 00:38:29;;;;;;;28.1;18.1;;;;;;;0.97;98.78418;95038.45;;;;
2019/11/11 00:39:30;;;;;;;28.1;18.1;;;;;;;0.97;98.78418;95038.45;;;;
2019/11/11 00:40:32;;;;;;;28.1;18.1;;;;;;;0.97;98.78418;95038.45;;;;
2019/11/11 00:41:33;;;;;;;28.1;18.1;;;;;;;0.97;98.78418;95038.45;;;;
2019/11/11 00:42:34;;;;;;;27.4;17.55;;;;;;;0.99;98.94434;95041.24;;;;
2019/11/11 00:43:35;;;;;;;27.4;17.55;;;;;;;0.99;98.94434;95041.24;;;;
2019/11/11 00:44:36;;;;;;;27.4;17.55;;;;;;;0.99;98.94434;95041.24;;;;
2019/11/11 00:45:37;;;;;;;27.4;17.55;;;;;;;0.99;98.94434;95041.24;;;;
2019/11/11 00:46:38;;;;;;;27.4;17.55;;;;;;;0.99;98.94434;95041.24;;;;
2019/11/11 00:47:39;;;;;;;27.4;17.55;;;;;;;0.99;98.94434;95041.24;;;;
2019/11/11 00:48:40;;;;;;;27.4;17.55;;;;;;;0.99;98.94434;95041.24;;;;
2019/11/11 00:49:42;;;;;;;27.4;17.55;;;;;;;0.99;98.94434;95041.24;;;;
2019/11/11 00:50:43;;;;;;;27.4;17.55;;;;;;;0.99;98.94434;95041.24;;;;
2019/11/11 00:51:44;;;;;;;27.4;17.55;;;;;;;0.99;98.94434;95041.24;;;;
2019/11/11 00:52:45;;;;;;;27.4;17.55;;;;;;;0.99;98.94434;95041.24;;;;
2019/11/11 00:53:46;;;;;;;27.05;17.2;;;;;;;1;98.97754;95047.31;;;;
2019/11/11 00:54:47;;;;;;;27.05;17.2;;;;;;;1;98.97754;95047.31;;;;
2019/11/11 00:55:48;;;;;;;27.05;17.2;;;;;;;1;98.97754;95047.31;;;;
2019/11/11 00:56:49;;;;;;;27.05;17.2;;;;;;;1;98.97754;95047.31;;;;
2019/11/11 00:57:51;;;;;;;27.05;17.2;;;;;;;1;98.97754;95047.31;;;;
2019/11/11 00:58:52;;;;;;;27.05;17.2;;;;;;;1;98.97754;95047.31;;;;
2019/11/11 00:59:53;;;;;;;27.05;17.2;;;;;;;1;98.97754;95047.31;;;;
2019/11/11 01:00:54;;;;;;;27.05;17.2;;;;;;;1;98.97754;95047.31;;;;
2019/11/11 01:01:55;;;;;;;27.05;17.2;;;;;;;1;98.97754;95047.31;;;;
2019/11/11 01:02:56;;;;;;;27.05;17.2;;;;;;;1;98.97754;95047.31;;;;
2019/11/11 01:03:57;;;;;;;28.35;17.55;;;;;;;1.01;98.86621;95034.81;;;;
2019/11/11 01:04:58;;;;;;;28.35;17.55;;;;;;;1.01;98.86621;95034.81;;;;
2019/11/11 01:06:00;;;;;;;28.35;17.55;;;;;;;1.01;98.86621;95034.81;;;;
2019/11/11 01:07:01;;;;;;;28.35;17.55;;;;;;;1.01;98.86621;95034.81;;;;
2019/11/11 01:08:02;;;;;;;28.35;17.55;;;;;;;1.01;98.86621;95034.81;;;;
2019/11/11 01:09:03;;;;;;;28.35;17.55;;;;;;;1.01;98.86621;95034.81;;;;
2019/11/11 01:10:05;;;;;;;28.35;17.55;;;;;;;1.01;98.86621;95034.81;;;;
2019/11/11 01:11:06;;;;;;;28.35;17.55;;;;;;;1.01;98.86621;95034.81;;;;
2019/11/11 01:12:07;;;;;;;28.35;17.55;;;;;;;1.01;98.86621;95034.81;;;;
2019/11/11 01:13:08;;;;;;;28.35;17.55;;;;;;;1.01;98.86621;95034.81;;;;
2019/11/11 01:14:09;;;;;;;26.2;15.9;;;;;;;1;98.95703;95029.61;;;;
2019/11/11 01:15:11;;;;;;;26.2;15.9;;;;;;;1;98.95703;95029.61;;;;
2019/11/11 01:16:12;;;;;;;26.2;15.9;;;;;;;1;98.95703;95029.61;;;;
2019/11/11 01:17:13;;;;;;;26.2;15.9;;;;;;;1;98.95703;95029.61;;;;
2019/11/11 01:18:14;;;;;;;26.2;15.9;;;;;;;1;98.95703;95029.61;;;;
2019/11/11 01:19:15;;;;;;;26.2;15.9;;;;;;;1;98.95703;95029.61;;;;
2019/11/11 01:20:16;;;;;;;26.2;15.9;;;;;;;1;98.95703;95029.61;;;;
2019/11/11 01:21:17;;;;;;;26.2;15.9;;;;;;;1;98.95703;95029.61;;;;
2019/11/11 01:22:19;;;;;;;26.2;15.9;;;;;;;1;98.95703;95029.61;;;;
2019/11/11 01:23:20;;;;;;;26.2;15.9;;;;;;;1;98.95703;95029.61;;;;
2019/11/11 01:24:21;;;;;;;26.2;15.9;;;;;;;1;98.95703;95029.61;;;;
2019/11/11 01:25:22;;;;;;;22.3;14.35;;;;;;;1.08;99.17383;95032.58;;;;
2019/11/11 01:26:23;;;;;;;22.3;14.35;;;;;;;1.08;99.17383;95032.58;;;;
2019/11/11 01:27:24;;;;;;;22.3;14.35;;;;;;;1.08;99.17383;95032.58;;;;
2019/11/11 01:28:30;;;;;;;22.3;14.35;;;;;;;1.08;99.17383;95032.58;;;;
2019/11/11 01:29:36;;;;;;;22.3;14.35;;;;;;;1.08;99.17383;95032.58;;;;
2019/11/11 01:30:38;;;;;;;22.3;14.35;;;;;;;1.08;99.17383;95032.58;;;;
2019/11/11 01:31:40;;;;;;;22.3;14.35;;;;;;;1.08;99.17383;95032.58;;;;
2019/11/11 01:32:42;;;;;;;22.3;14.35;;;;;;;1.08;99.17383;95032.58;;;;
2019/11/11 01:33:43;;;;;;;22.3;14.35;;;;;;;1.08;99.17383;95032.58;;;;
2019/11/11 01:34:44;;;;;;;22.3;14.35;;;;;;;1.08;99.17383;95032.58;;;;
2019/11/11 01:35:46;;;;;;;22.85;14.85;;;;;;;1.12;98.93359;95024.14;;;;
2019/11/11 01:36:47;;;;;;;22.85;14.85;;;;;;;1.12;98.93359;95024.14;;;;
2019/11/11 01:37:48;;;;;;;22.85;14.85;;;;;;;1.12;98.93359;95024.14;;;;
2019/11/11 01:38:49;;;;;;;22.85;14.85;;;;;;;1.12;98.93359;95024.14;;;;
2019/11/11 01:39:50;;;;;;;22.85;14.85;;;;;;;1.12;98.93359;95024.14;;;;
2019/11/11 01:40:51;;;;;;;22.85;14.85;;;;;;;1.12;98.93359;95024.14;;;;
2019/11/11 01:41:52;;;;;;;22.85;14.85;;;;;;;1.12;98.93359;95024.14;;;;
2019/11/11 01:42:54;;;;;;;22.85;14.85;;;;;;;1.12;98.93359;95024.14;;;;
2019/11/11 01:43:55;;;;;;;22.85;14.85;;;;;;;1.12;98.93359;95024.14;;;;
2019/11/11 01:44:56;;;;;;;22.85;14.85;;;;;;;1.12;98.93359;95024.14;;;;
2019/11/11 01:45:57;;;;;;;26.7;15.35;;;;;;;1.06;98.88965;94998.28;;;;
2019/11/11 01:46:58;;;;;;;26.7;15.35;;;;;;;1.06;98.88965;94998.28;;;;
2019/11/11 01:47:59;;;;;;;26.7;15.35;;;;;;;1.06;98.88965;94998.28;;;;
2019/11/11 01:49:00;;;;;;;26.7;15.35;;;;;;;1.06;98.88965;94998.28;;;;
2019/11/11 01:50:02;;;;;;;26.7;15.35;;;;;;;1.06;98.88965;94998.28;;;;
2019/11/11 01:51:03;;;;;;;26.7;15.35;;;;;;;1.06;98.88965;94998.28;;;;
2019/11/11 01:52:05;;;;;;;26.7;15.35;;;;;;;1.06;98.88965;94998.28;;;;
2019/11/11 01:53:06;;;;;;;26.7;15.35;;;;;;;1.06;98.88965;94998.28;;;;
2019/11/11 01:54:07;;;;;;;26.7;15.35;;;;;;;1.06;98.88965;94998.28;;;;
2019/11/11 01:55:08;;;;;;;26.7;15.35;;;;;;;1.06;98.88965;94998.28;;;;
2019/11/11 01:56:09;;;;;;;26.7;15.35;;;;;;;1.06;98.88965;94998.28;;;;
2019/11/11 01:57:10;;;;;;;25.9;16.15;;;;;;;1.09;99.16406;94992.63;;;;
2019/11/11 01:58:11;;;;;;;25.9;16.15;;;;;;;1.09;99.16406;94992.63;;;;
2019/11/11 01:59:12;;;;;;;25.9;16.15;;;;;;;1.09;99.16406;94992.63;;;;
2019/11/11 02:00:14;;;;;;;25.9;16.15;;;;;;;1.09;99.16406;94992.63;;;;
2019/11/11 02:01:15;;;;;;;25.9;16.15;;;;;;;1.09;99.16406;94992.63;;;;
2019/11/11 02:02:16;;;;;;;25.9;16.15;;;;;;;1.09;99.16406;94992.63;;;;
2019/11/11 02:03:17;;;;;;;25.9;16.15;;;;;;;1.09;99.16406;94992.63;;;;
2019/11/11 02:04:18;;;;;;;25.9;16.15;;;;;;;1.09;99.16406;94992.63;;;;
2019/11/11 02:05:20;;;;;;;25.9;16.15;;;;;;;1.09;99.16406;94992.63;;;;
2019/11/11 02:06:21;;;;;;;25.9;16.15;;;;;;;1.09;99.16406;94992.63;;;;
2019/11/11 02:07:22;;;;;;;22.8;14.4;;;;;;;1.11;99.20117;94995.92;;;;
2019/11/11 02:08:24;;;;;;;22.8;14.4;;;;;;;1.11;99.20117;94995.92;;;;
2019/11/11 02:09:25;;;;;;;22.8;14.4;;;;;;;1.11;99.20117;94995.92;;;;
2019/11/11 02:10:26;;;;;;;22.8;14.4;;;;;;;1.11;99.20117;94995.92;;;;
2019/11/11 02:11:27;;;;;;;22.8;14.4;;;;;;;1.11;99.20117;94995.92;;;;
2019/11/11 02:12:28;;;;;;;22.8;14.4;;;;;;;1.11;99.20117;94995.92;;;;
2019/11/11 02:13:29;;;;;;;22.8;14.4;;;;;;;1.11;99.20117;94995.92;;;;
2019/11/11 02:14:31;;;;;;;22.8;14.4;;;;;;;1.11;99.20117;94995.92;;;;
2019/11/11 02:15:32;;;;;;;22.8;14.4;;;;;;;1.11;99.20117;94995.92;;;;
2019/11/11 02:16:33;;;;;;;22.8;14.4;;;;;;;1.11;99.20117;94995.92;;;;
2019/11/11 02:17:34;;;;;;;22.8;14.4;;;;;;;1.11;99.20117;94995.92;;;;
2019/11/11 02:18:35;;;;;;;25.9;14.7;;;;;;;1.17;99.43262;94980.13;;;;
2019/11/11 02:19:36;;;;;;;25.9;14.7;;;;;;;1.17;99.43262;94980.13;;;;
2019/11/11 02:20:38;;;;;;;25.9;14.7;;;;;;;1.17;99.43262;94980.13;;;;
2019/11/11 02:21:39;;;;;;;25.9;14.7;;;;;;;1.17;99.43262;94980.13;;;;
2019/11/11 02:22:40;;;;;;;25.9;14.7;;;;;;;1.17;99.43262;94980.13;;;;
2019/11/11 02:23:41;;;;;;;25.9;14.7;;;;;;;1.17;99.43262;94980.13;;;;
2019/11/11 02:24:42;;;;;;;25.9;14.7;;;;;;;1.17;99.43262;94980.13;;;;
2019/11/11 02:25:44;;;;;;;25.9;14.7;;;;;;;1.17;99.43262;94980.13;;;;
2019/11/11 02:26:45;;;;;;;25.9;14.7;;;;;;;1.17;99.43262;94980.13;;;;
2019/11/11 02:27:46;;;;;;;25.9;14.7;;;;;;;1.17;99.43262;94980.13;;;;
2019/11/11 02:28:47;;;;;;;24.8;15;;;;;;;1.19;99.4248;94987.94;;;;
2019/11/11 02:29:48;;;;;;;24.8;15;;;;;;;1.19;99.4248;94987.94;;;;
2019/11/11 02:30:49;;;;;;;24.8;15;;;;;;;1.19;99.4248;94987.94;;;;
2019/11/11 02:31:50;;;;;;;24.8;15;;;;;;;1.19;99.4248;94987.94;;;;
2019/11/11 02:32:52;;;;;;;24.8;15;;;;;;;1.19;99.4248;94987.94;;;;
2019/11/11 02:33:53;;;;;;;24.8;15;;;;;;;1.19;99.4248;94987.94;;;;
2019/11/11 02:34:54;;;;;;;24.8;15;;;;;;;1.19;99.4248;94987.94;;;;
2019/11/11 02:35:55;;;;;;;24.8;15;;;;;;;1.19;99.4248;94987.94;;;;
2019/11/11 02:36:56;;;;;;;24.8;15;;;;;;;1.19;99.4248;94987.94;;;;
2019/11/11 02:37:57;;;;;;;24.8;15;;;;;;;1.19;99.4248;94987.94;;;;
2019/11/11 02:38:59;;;;;;;19.75;13.3;;;;;;;1.17;99.64844;94993.95;;;;
2019/11/11 02:40:00;;;;;;;19.75;13.3;;;;;;;1.17;99.64844;94993.95;;;;
2019/11/11 02:41:01;;;;;;;19.75;13.3;;;;;;;1.17;99.64844;94993.95;;;;
2019/11/11 02:42:02;;;;;;;19.75;13.3;;;;;;;1.17;99.64844;94993.95;;;;
2019/11/11 02:43:04;;;;;;;19.75;13.3;;;;;;;1.17;99.64844;94993.95;;;;
2019/11/11 02:44:05;;;;;;;19.75;13.3;;;;;;;1.17;99.64844;94993.95;;;;
2019/11/11 02:45:06;;;;;;;19.75;13.3;;;;;;;1.17;99.64844;94993.95;;;;
2019/11/11 02:46:07;;;;;;;19.75;13.3;;;;;;;1.17;99.64844;94993.95;;;;
2019/11/11 02:47:09;;;;;;;19.75;13.3;;;;;;;1.17;99.64844;94993.95;;;;
2019/11/11 02:48:10;;;;;;;19.75;13.3;;;;;;;1.17;99.64844;94993.95;;;;
2019/11/11 02:49:11;;;;;;;19.75;13.3;;;;;;;1.17;99.64844;94993.95;;;;
2019/11/11 02:50:12;;;;;;;20.7;13.1;;;;;;;1.2;99.66797;94979.36;;;;
2019/11/11 02:51:13;;;;;;;20.7;13.1;;;;;;;1.2;99.66797;94979.36;;;;
2019/11/11 02:52:14;;;;;;;20.7;13.1;;;;;;;1.2;99.66797;94979.36;;;;
2019/11/11 02:53:16;;;;;;;20.7;13.1;;;;;;;1.2;99.66797;94979.36;;;;
2019/11/11 02:54:17;;;;;;;20.7;13.1;;;;;;;1.2;99.66797;94979.36;;;;
2019/11/11 02:55:18;;;;;;;20.7;13.1;;;;;;;1.2;99.66797;94979.36;;;;
2019/11/11 02:56:19;;;;;;;20.7;13.1;;;;;;;1.2;99.66797;94979.36;;;;
2019/11/11 02:57:20;;;;;;;20.7;13.1;;;;;;;1.2;99.66797;94979.36;;;;
2019/11/11 02:58:22;;;;;;;20.7;13.1;;;;;;;1.2;99.66797;94979.36;;;;
2019/11/11 02:59:23;;;;;;;20.7;13.1;;;;;;;1.2;99.66797;94979.36;;;;
2019/11/11 03:00:24;;;;;;;21.05;13.2;;;;;;;1.14;99.55078;94961.89;;;;
2019/11/11 03:01:25;;;;;;;21.05;13.2;;;;;;;1.14;99.55078;94961.89;;;;
2019/11/11 03:02:26;;;;;;;21.05;13.2;;;;;;;1.14;99.55078;94961.89;;;;
2019/11/11 03:03:27;;;;;;;21.05;13.2;;;;;;;1.14;99.55078;94961.89;;;;
2019/11/11 03:04:29;;;;;;;21.05;13.2;;;;;;;1.14;99.55078;94961.89;;;;
2019/11/11 03:05:30;;;;;;;21.05;13.2;;;;;;;1.14;99.55078;94961.89;;;;
2019/11/11 03:06:31;;;;;;;21.05;13.2;;;;;;;1.14;99.55078;94961.89;;;;
2019/11/11 03:07:32;;;;;;;21.05;13.2;;;;;;;1.14;99.55078;94961.89;;;;
2019/11/11 03:08:33;;;;;;;21.05;13.2;;;;;;;1.14;99.55078;94961.89;;;;
2019/11/11 03:09:34;;;;;;;21.05;13.2;;;;;;;1.14;99.55078;94961.89;;;;
2019/11/11 03:10:36;;;;;;;21.05;13.2;;;;;;;1.14;99.55078;94961.89;;;;
2019/11/11 03:11:37;;;;;;;19.75;13.05;;;;;;;1.15;99.64648;94963.95;;;;
2019/11/11 03:13:47;;;;;;;19.75;13.05;;;;;;;1.15;99.64648;94963.95;;;;
2019/11/11 03:14:49;;;;;;;19.75;13.05;;;;;;;1.15;99.64648;94963.95;;;;
2019/11/11 03:15:58;;;;;;;19.75;13.05;;;;;;;1.15;99.64648;94963.95;;;;
2019/11/11 03:16:59;;;;;;;19.75;13.05;;;;;;;1.15;99.64648;94963.95;;;;
2019/11/11 03:18:01;;;;;;;19.75;13.05;;;;;;;1.15;99.64648;94963.95;;;;
2019/11/11 03:19:02;;;;;;;19.75;13.05;;;;;;;1.15;99.64648;94963.95;;;;
2019/11/11 03:20:03;;;;;;;19.75;13.05;;;;;;;1.15;99.64648;94963.95;;;;
2019/11/11 03:21:05;;;;;;;19.75;13.05;;;;;;;1.15;99.64648;94963.95;;;;
2019/11/11 03:22:06;;;;;;;19.6;10.85;;;;;;;1.07;99.5957;94960.58;;;;
2019/11/11 03:23:07;;;;;;;19.6;10.85;;;;;;;1.07;99.5957;94960.58;;;;
2019/11/11 03:24:08;;;;;;;19.6;10.85;;;;;;;1.07;99.5957;94960.58;;;;
2019/11/11 03:25:09;;;;;;;19.6;10.85;;;;;;;1.07;99.5957;94960.58;;;;
2019/11/11 03:26:11;;;;;;;19.6;10.85;;;;;;;1.07;99.5957;94960.58;;;;
2019/11/11 03:27:12;;;;;;;19.6;10.85;;;;;;;1.07;99.5957;94960.58;;;;
2019/11/11 03:28:13;;;;;;;19.6;10.85;;;;;;;1.07;99.5957;94960.58;;;;
2019/11/11 03:29:14;;;;;;;19.6;10.85;;;;;;;1.07;99.5957;94960.58;;;;
2019/11/11 03:30:15;;;;;;;19.6;10.85;;;;;;;1.07;99.5957;94960.58;;;;
2019/11/11 03:31:16;;;;;;;19.6;10.85;;;;;;;1.07;99.5957;94960.58;;;;
2019/11/11 03:32:18;;;;;;;15.4;11.05;;;;;;;1.01;99.65527;94957.73;;;;
2019/11/11 03:33:19;;;;;;;15.4;11.05;;;;;;;1.01;99.65527;94957.73;;;;
2019/11/11 03:34:20;;;;;;;15.4;11.05;;;;;;;1.01;99.65527;94957.73;;;;
2019/11/11 03:35:21;;;;;;;15.4;11.05;;;;;;;1.01;99.65527;94957.73;;;;
2019/11/11 03:36:22;;;;;;;15.4;11.05;;;;;;;1.01;99.65527;94957.73;;;;
2019/11/11 03:37:23;;;;;;;15.4;11.05;;;;;;;1.01;99.65527;94957.73;;;;
2019/11/11 03:38:24;;;;;;;15.4;11.05;;;;;;;1.01;99.65527;94957.73;;;;
2019/11/11 03:39:25;;;;;;;15.4;11.05;;;;;;;1.01;99.65527;94957.73;;;;
2019/11/11 03:40:27;;;;;;;15.4;11.05;;;;;;;1.01;99.65527;94957.73;;;;
2019/11/11 03:41:28;;;;;;;15.4;11.05;;;;;;;1.01;99.65527;94957.73;;;;
2019/11/11 03:42:31;;;;;;;15.4;11.05;;;;;;;1.01;99.65527;94957.73;;;;
2019/11/11 03:43:34;;;;;;;14.1;10.1;;;;;;;0.88;99.62402;94963.83;;;;
2019/11/11 03:44:37;;;;;;;14.1;10.1;;;;;;;0.88;99.62402;94963.83;;;;
2019/11/11 03:45:38;;;;;;;14.1;10.1;;;;;;;0.88;99.62402;94963.83;;;;
2019/11/11 03:46:40;;;;;;;14.1;10.1;;;;;;;0.88;99.62402;94963.83;;;;
2019/11/11 03:47:42;;;;;;;14.1;10.1;;;;;;;0.88;99.62402;94963.83;;;;
2019/11/11 03:48:43;;;;;;;14.1;10.1;;;;;;;0.88;99.62402;94963.83;;;;
2019/11/11 03:49:51;;;;;;;14.1;10.1;;;;;;;0.88;99.62402;94963.83;;;;
2019/11/11 03:50:53;;;;;;;14.1;10.1;;;;;;;0.88;99.62402;94963.83;;;;
2019/11/11 03:51:54;;;;;;;14.1;10.1;;;;;;;0.88;99.62402;94963.83;;;;
2019/11/11 03:53:04;;;;;;;14.1;10.1;;;;;;;0.88;99.62402;94963.83;;;;
2019/11/11 03:54:08;;;;;;;18.3;10.55;;;;;;;0.88;99.96973;94932.73;;;;
2019/11/11 03:55:09;;;;;;;18.3;10.55;;;;;;;0.88;99.96973;94932.73;;;;
2019/11/11 03:56:12;;;;;;;18.3;10.55;;;;;;;0.88;99.96973;94932.73;;;;
2019/11/11 03:57:15;;;;;;;18.3;10.55;;;;;;;0.88;99.96973;94932.73;;;;
2019/11/11 03:58:17;;;;;;;18.3;10.55;;;;;;;0.88;99.96973;94932.73;;;;
2019/11/11 03:59:18;;;;;;;18.3;10.55;;;;;;;0.88;99.96973;94932.73;;;;
2019/11/11 04:00:19;;;;;;;18.3;10.55;;;;;;;0.88;99.96973;94932.73;;;;
2019/11/11 04:01:21;;;;;;;18.3;10.55;;;;;;;0.88;99.96973;94932.73;;;;
2019/11/11 04:02:23;;;;;;;18.3;10.55;;;;;;;0.88;99.96973;94932.73;;;;
2019/11/11 04:03:24;;;;;;;18.3;10.55;;;;;;;0.88;99.96973;94932.73;;;;
2019/11/11 04:04:25;;;;;;;13.35;10.15;;;;;;;0.88;99.76172;94916.8;;;;
2019/11/11 04:05:27;;;;;;;13.35;10.15;;;;;;;0.88;99.76172;94916.8;;;;
2019/11/11 04:06:28;;;;;;;13.35;10.15;;;;;;;0.88;99.76172;94916.8;;;;
2019/11/11 04:07:29;;;;;;;13.35;10.15;;;;;;;0.88;99.76172;94916.8;;;;
2019/11/11 04:08:30;;;;;;;13.35;10.15;;;;;;;0.88;99.76172;94916.8;;;;
2019/11/11 04:09:31;;;;;;;13.35;10.15;;;;;;;0.88;99.76172;94916.8;;;;
2019/11/11 04:10:32;;;;;;;13.35;10.15;;;;;;;0.88;99.76172;94916.8;;;;
2019/11/11 04:11:34;;;;;;;13.35;10.15;;;;;;;0.88;99.76172;94916.8;;;;
2019/11/11 04:12:35;;;;;;;13.35;10.15;;;;;;;0.88;99.76172;94916.8;;;;
2019/11/11 04:13:37;;;;;;;13.35;10.15;;;;;;;0.88;99.76172;94916.8;;;;
2019/11/11 04:14:38;;;;;;;14.05;9.95;;;;;;;0.78;99.69336;94894.19;;;;
2019/11/11 04:15:39;;;;;;;14.05;9.95;;;;;;;0.78;99.69336;94894.19;;;;
2019/11/11 04:16:40;;;;;;;14.05;9.95;;;;;;;0.78;99.69336;94894.19;;;;
2019/11/11 04:17:41;;;;;;;14.05;9.95;;;;;;;0.78;99.69336;94894.19;;;;
2019/11/11 04:18:42;;;;;;;14.05;9.95;;;;;;;0.78;99.69336;94894.19;;;;
2019/11/11 04:19:43;;;;;;;14.05;9.95;;;;;;;0.78;99.69336;94894.19;;;;
2019/11/11 04:20:44;;;;;;;14.05;9.95;;;;;;;0.78;99.69336;94894.19;;;;
2019/11/11 04:21:45;;;;;;;14.05;9.95;;;;;;;0.78;99.69336;94894.19;;;;
2019/11/11 04:22:46;;;;;;;14.05;9.95;;;;;;;0.78;99.69336;94894.19;;;;
2019/11/11 04:23:48;;;;;;;14.05;9.95;;;;;;;0.78;99.69336;94894.19;;;;
2019/11/11 04:24:50;;;;;;;14.05;9.95;;;;;;;0.78;99.69336;94894.19;;;;
2019/11/11 04:25:52;;;;;;;14.1;10.25;;;;;;;0.79;100;94889.2;;;;
2019/11/11 04:26:55;;;;;;;14.1;10.25;;;;;;;0.79;100;94889.2;;;;
2019/11/11 04:27:58;;;;;;;14.1;10.25;;;;;;;0.79;100;94889.2;;;;
2019/11/11 04:29:00;;;;;;;14.1;10.25;;;;;;;0.79;100;94889.2;;;;
2019/11/11 04:30:01;;;;;;;14.1;10.25;;;;;;;0.79;100;94889.2;;;;
2019/11/11 04:31:03;;;;;;;14.1;10.25;;;;;;;0.79;100;94889.2;;;;
2019/11/11 04:32:04;;;;;;;14.1;10.25;;;;;;;0.79;100;94889.2;;;;
2019/11/11 04:33:09;;;;;;;14.1;10.25;;;;;;;0.79;100;94889.2;;;;
2019/11/11 04:34:16;;;;;;;14.1;10.25;;;;;;;0.79;100;94889.2;;;;
2019/11/11 04:35:19;;;;;;;14.1;10.25;;;;;;;0.79;100;94889.2;;;;
2019/11/11 04:36:25;;;;;;;15.9;10.7;;;;;;;0.77;99.93066;94896.53;;;;
2019/11/11 04:37:29;;;;;;;15.9;10.7;;;;;;;0.77;99.93066;94896.53;;;;
2019/11/11 04:38:31;;;;;;;15.9;10.7;;;;;;;0.77;99.93066;94896.53;;;;
2019/11/11 04:39:37;;;;;;;15.9;10.7;;;;;;;0.77;99.93066;94896.53;;;;
2019/11/11 04:40:38;;;;;;;15.9;10.7;;;;;;;0.77;99.93066;94896.53;;;;
2019/11/11 04:41:40;;;;;;;15.9;10.7;;;;;;;0.77;99.93066;94896.53;;;;
2019/11/11 04:42:41;;;;;;;15.9;10.7;;;;;;;0.77;99.93066;94896.53;;;;
2019/11/11 04:43:42;;;;;;;15.9;10.7;;;;;;;0.77;99.93066;94896.53;;;;
2019/11/11 04:44:44;;;;;;;15.9;10.7;;;;;;;0.77;99.93066;94896.53;;;;
2019/11/11 04:45:45;;;;;;;15.9;10.7;;;;;;;0.77;99.93066;94896.53;;;;
2019/11/11 04:46:47;;;;;;;15.5;10.05;;;;;;;0.67;99.93945;94900.37;;;;
2019/11/11 04:47:48;;;;;;;15.5;10.05;;;;;;;0.67;99.93945;94900.37;;;;
2019/11/11 04:48:49;;;;;;;15.5;10.05;;;;;;;0.67;99.93945;94900.37;;;;
2019/11/11 04:49:50;;;;;;;15.5;10.05;;;;;;;0.67;99.93945;94900.37;;;;
2019/11/11 04:50:51;;;;;;;15.5;10.05;;;;;;;0.67;99.93945;94900.37;;;;
2019/11/11 04:51:52;;;;;;;15.5;10.05;;;;;;;0.67;99.93945;94900.37;;;;
2019/11/11 04:52:53;;;;;;;15.5;10.05;;;;;;;0.67;99.93945;94900.37;;;;
2019/11/11 04:53:54;;;;;;;15.5;10.05;;;;;;;0.67;99.93945;94900.37;;;;
2019/11/11 04:54:55;;;;;;;15.5;10.05;;;;;;;0.67;99.93945;94900.37;;;;
2019/11/11 04:55:56;;;;;;;15.5;10.05;;;;;;;0.67;99.93945;94900.37;;;;
2019/11/11 04:56:58;;;;;;;11.85;8.85;;;;;;;0.59;99.86816;94910.21;;;;
2019/11/11 04:57:59;;;;;;;11.85;8.85;;;;;;;0.59;99.86816;94910.21;;;;
2019/11/11 04:59:00;;;;;;;11.85;8.85;;;;;;;0.59;99.86816;94910.21;;;;
2019/11/11 05:00:01;;;;;;;11.85;8.85;;;;;;;0.59;99.86816;94910.21;;;;
2019/11/11 05:01:03;;;;;;;11.85;8.85;;;;;;;0.59;99.86816;94910.21;;;;
2019/11/11 05:02:04;;;;;;;11.85;8.85;;;;;;;0.59;99.86816;94910.21;;;;
2019/11/11 05:03:05;;;;;;;11.85;8.85;;;;;;;0.59;99.86816;94910.21;;;;
2019/11/11 05:04:07;;;;;;;11.85;8.85;;;;;;;0.59;99.86816;94910.21;;;;
2019/11/11 05:05:08;;;;;;;11.85;8.85;;;;;;;0.59;99.86816;94910.21;;;;
2019/11/11 05:06:09;;;;;;;11.85;8.85;;;;;;;0.59;99.86816;94910.21;;;;
2019/11/11 05:07:10;;;;;;;11.85;8.85;;;;;;;0.59;99.86816;94910.21;;;;
2019/11/11 05:08:11;;;;;;;13.2;9.5;;;;;;;0.52;99.82129;94902.14;;;;
2019/11/11 05:09:12;;;;;;;13.2;9.5;;;;;;;0.52;99.82129;94902.14;;;;
2019/11/11 05:10:14;;;;;;;13.2;9.5;;;;;;;0.52;99.82129;94902.14;;;;
2019/11/11 05:11:15;;;;;;;13.2;9.5;;;;;;;0.52;99.82129;94902.14;;;;
2019/11/11 05:12:17;;;;;;;13.2;9.5;;;;;;;0.52;99.82129;94902.14;;;;
2019/11/11 05:13:18;;;;;;;13.2;9.5;;;;;;;0.52;99.82129;94902.14;;;;
2019/11/11 05:14:19;;;;;;;13.2;9.5;;;;;;;0.52;99.82129;94902.14;;;;
2019/11/11 05:15:21;;;;;;;13.2;9.5;;;;;;;0.52;99.82129;94902.14;;;;
2019/11/11 05:16:22;;;;;;;13.2;9.5;;;;;;;0.52;99.82129;94902.14;;;;
2019/11/11 05:17:23;;;;;;;13.2;9.5;;;;;;;0.52;99.82129;94902.14;;;;
2019/11/11 05:18:24;;;;;;;12.95;9.299999;;;;;;;0.44;100;94905.81;;;;
2019/11/11 05:19:25;;;;;;;12.95;9.299999;;;;;;;0.44;100;94905.81;;;;
2019/11/11 05:20:26;;;;;;;12.95;9.299999;;;;;;;0.44;100;94905.81;;;;
2019/11/11 05:21:28;;;;;;;12.95;9.299999;;;;;;;0.44;100;94905.81;;;;
2019/11/11 05:22:29;;;;;;;12.95;9.299999;;;;;;;0.44;100;94905.81;;;;
2019/11/11 05:23:30;;;;;;;12.95;9.299999;;;;;;;0.44;100;94905.81;;;;
2019/11/11 05:24:31;;;;;;;12.95;9.299999;;;;;;;0.44;100;94905.81;;;;
2019/11/11 05:25:32;;;;;;;12.95;9.299999;;;;;;;0.44;100;94905.81;;;;
2019/11/11 05:26:33;;;;;;;12.95;9.299999;;;;;;;0.44;100;94905.81;;;;
2019/11/11 05:27:34;;;;;;;12.95;9.299999;;;;;;;0.44;100;94905.81;;;;
2019/11/11 05:28:36;;;;;;;12.95;9.299999;;;;;;;0.44;100;94905.81;;;;
2019/11/11 05:29:37;;;;;;;18.05;10.35;;;;;;;0.47;100;94902.37;;;;
2019/11/11 05:30:38;;;;;;;18.05;10.35;;;;;;;0.47;100;94902.37;;;;
2019/11/11 05:31:39;;;;;;;18.05;10.35;;;;;;;0.47;100;94902.37;;;;
2019/11/11 05:32:40;;;;;;;18.05;10.35;;;;;;;0.47;100;94902.37;;;;
2019/11/11 05:33:41;;;;;;;18.05;10.35;;;;;;;0.47;100;94902.37;;;;
2019/11/11 05:34:42;;;;;;;18.05;10.35;;;;;;;0.47;100;94902.37;;;;
2019/11/11 05:35:43;;;;;;;18.05;10.35;;;;;;;0.47;100;94902.37;;;;
2019/11/11 05:36:44;;;;;;;18.05;10.35;;;;;;;0.47;100;94902.37;;;;
2019/11/11 05:37:46;;;;;;;18.05;10.35;;;;;;;0.47;100;94902.37;;;;
2019/11/11 05:38:47;;;;;;;18.05;10.35;;;;;;;0.47;100;94902.37;;;;
2019/11/11 05:39:48;;;;;;;25.85;11.05;;;;;;;0.36;99.87695;94889.15;;;;
2019/11/11 05:40:49;;;;;;;25.85;11.05;;;;;;;0.36;99.87695;94889.15;;;;
2019/11/11 05:41:50;;;;;;;25.85;11.05;;;;;;;0.36;99.87695;94889.15;;;;
2019/11/11 05:42:51;;;;;;;25.85;11.05;;;;;;;0.36;99.87695;94889.15;;;;
2019/11/11 05:43:52;;;;;;;25.85;11.05;;;;;;;0.36;99.87695;94889.15;;;;
2019/11/11 05:44:53;;;;;;;25.85;11.05;;;;;;;0.36;99.87695;94889.15;;;;
2019/11/11 05:45:54;;;;;;;25.85;11.05;;;;;;;0.36;99.87695;94889.15;;;;
2019/11/11 05:46:56;;;;;;;25.85;11.05;;;;;;;0.36;99.87695;94889.15;;;;
2019/11/11 05:47:57;;;;;;;25.85;11.05;;;;;;;0.36;99.87695;94889.15;;;;
2019/11/11 05:48:58;;;;;;;25.85;11.05;;;;;;;0.36;99.87695;94889.15;;;;
2019/11/11 05:49:59;;;;;;;19.55;11.7;;;;;;;0.38;100;94898.16;;;;
2019/11/11 05:51:00;;;;;;;19.55;11.7;;;;;;;0.38;100;94898.16;;;;
2019/11/11 05:52:01;;;;;;;19.55;11.7;;;;;;;0.38;100;94898.16;;;;
2019/11/11 05:53:02;;;;;;;19.55;11.7;;;;;;;0.38;100;94898.16;;;;